Airfield :
LOGIN :

Register | Disclaimer

   EN    FR    IT 

 










Legend :    VFR   Marginal VFR   IFR   Intensive IFR   Very Intensive IFR
Visi :
Ceiling :
>= 8 km
>= 3000ft
5 to 8 km
1000 to 3000 ft
1500m to 5 km
500 to 1000 ft
800 to 1500m
200 to 500 ft
< 800m
< 200 ft
Symbols :   Thunderstorms  Fog  Heavy snow  Heavy precipitations  Wind > 20 kt
SIGMETs :     Misc.  Thunderstorms  Icing  Turbulence  Mountain Waves  Volcanic Ashes







- Airport Elevation : 1302 ft
- IATA code : GNB
- Download approach charts


LFLS - Grenoble / St. Geoirs

CURRENT METAR :
  • 170530Z AUTO 10004KT CAVOK 16/15 Q1021 NOSIG

EXPIRED METARs :
  • 170500Z AUTO 10005KT CAVOK 16/14 Q1021 NOSIG
  • 170430Z AUTO 10005KT CAVOK 15/14 Q1020 NOSIG
  • 170400Z AUTO VRB03KT CAVOK 16/14 Q1020 NOSIG
  • 170330Z AUTO 13003KT CAVOK 16/15 Q1020 NOSIG
  • 170300Z AUTO 04002KT CAVOK 16/15 Q1020 NOSIG

TAF TAF LFLS
Valid from the 17 at 03:00 until the 18 at 03:00 UTC


170200Z 1703/1803 09005KT CAVOK
BECMG 1708/1710 36007KT
BECMG 1718/1720 09005KT
ATIS : +33 4 76 65 55 89
No reported NOTAMs for that airfield.



MET'MAP, your aeronautical weather chart ! - Copyright ORBIFLY December 2007 - Disclaimer

ORBIFLY MET'MAP TEAM :

Programming & Development : Alexandra Zaïnal
Concept & Development : Baudouin d'Aumeries
Co-Development & Prog : Marc-Olivier Méhu
Technical & hardware support : Manuel Goepfert

Contact : metmap@orbifly.com




SOURCES & CREDITS :

   NOAA